createdAt,value
2022-11-24T00:01:43.573Z,11.31
2022-11-24T00:06:45.402Z,11.71
2022-11-24T00:11:47.177Z,11.62
2022-11-24T00:16:50.319Z,11.90
2022-11-24T00:21:52.156Z,11.64
2022-11-24T00:26:53.924Z,11.34
2022-11-24T00:31:57.102Z,11.84
2022-11-24T00:36:58.853Z,11.88
2022-11-24T00:42:00.682Z,12.23
2022-11-24T00:47:03.942Z,12.09
2022-11-24T00:52:05.850Z,12.38
2022-11-24T00:57:07.735Z,12.13
2022-11-24T01:02:10.903Z,11.74
2022-11-24T01:07:12.707Z,11.93
2022-11-24T01:12:14.510Z,12.03
2022-11-24T01:17:17.639Z,12.24
2022-11-24T01:22:19.433Z,12.94
2022-11-24T01:27:21.324Z,12.88
2022-11-24T01:32:24.581Z,12.73
2022-11-24T01:37:26.718Z,12.71
2022-11-24T01:42:37.551Z,12.92
2022-11-24T01:47:43.524Z,12.45
2022-11-24T01:52:46.467Z,12.98
2022-11-24T01:57:49.846Z,13.01
2022-11-24T02:02:53.028Z,13.01
2022-11-24T02:07:57.141Z,13.28
2022-11-24T02:13:00.021Z,13.12
2022-11-24T02:18:03.335Z,13.19
2022-11-24T02:23:08.173Z,13.06
2022-11-24T02:28:13.531Z,13.11
2022-11-24T02:33:15.322Z,12.75
2022-11-24T02:38:17.126Z,12.91
2022-11-24T02:43:21.107Z,13.33
2022-11-24T02:48:22.889Z,13.66
2022-11-24T02:53:24.912Z,13.45
2022-11-24T02:58:27.995Z,13.38
2022-11-24T03:03:29.822Z,13.21
2022-11-24T03:08:31.590Z,13.08
2022-11-24T03:13:34.654Z,12.61
2022-11-24T03:18:36.496Z,12.66
2022-11-24T03:23:38.253Z,13.01
2022-11-24T03:28:41.442Z,13.44
2022-11-24T03:33:43.197Z,13.39
2022-11-24T03:38:44.997Z,13.30
2022-11-24T03:43:48.154Z,12.54
2022-11-24T03:48:50.023Z,12.73
2022-11-24T03:53:51.805Z,13.41
2022-11-24T03:58:54.897Z,13.68
2022-11-24T04:03:56.695Z,13.08
2022-11-24T04:08:59.981Z,12.36
2022-11-24T04:14:03.095Z,12.45
2022-11-24T04:19:05.268Z,12.53
2022-11-24T04:24:07.152Z,12.44
2022-11-24T04:29:11.051Z,12.65
2022-11-24T04:34:12.803Z,12.66
2022-11-24T04:39:25.421Z,12.59
2022-11-24T04:44:29.853Z,12.52
2022-11-24T04:49:31.672Z,12.45
2022-11-24T04:54:33.758Z,12.24
2022-11-24T04:59:37.077Z,12.22
2022-11-24T05:04:39.006Z,12.36
2022-11-24T05:10:00.823Z,12.08
2022-11-24T05:15:04.995Z,12.13
2022-11-24T05:20:07.587Z,12.09
2022-11-24T05:25:09.773Z,12.09
2022-11-24T05:30:13.815Z,12.35
2022-11-24T05:35:15.957Z,12.48
2022-11-24T05:40:17.806Z,12.57
2022-11-24T05:45:21.321Z,12.64
2022-11-24T05:50:23.130Z,12.79
2022-11-24T05:55:25.217Z,12.61
2022-11-24T06:00:28.798Z,12.74
2022-11-24T06:05:30.780Z,12.83
2022-11-24T06:10:32.534Z,12.91
2022-11-24T06:15:37.551Z,12.93
2022-11-24T06:20:39.281Z,12.76
2022-11-24T06:25:40.971Z,12.79
2022-11-24T06:30:44.055Z,12.77
2022-11-24T06:35:45.765Z,12.74
2022-11-24T06:40:47.536Z,12.96
2022-11-24T06:45:52.714Z,12.95
2022-11-24T06:50:58.178Z,13.09
2022-11-24T06:56:00.033Z,13.32
2022-11-24T07:01:03.235Z,13.11
2022-11-24T07:06:05.259Z,13.71
2022-11-24T07:11:07.347Z,13.32
2022-11-24T07:16:15.251Z,13.68
2022-11-24T07:21:17.402Z,13.67
2022-11-24T07:26:19.388Z,13.65
2022-11-24T07:31:24.883Z,14.03
2022-11-24T07:36:26.780Z,14.15
2022-11-24T07:41:28.577Z,14.31
2022-11-24T07:46:31.715Z,14.20
2022-11-24T07:51:33.546Z,14.13
2022-11-24T07:56:35.344Z,14.37
2022-11-24T08:01:38.675Z,14.59
2022-11-24T08:06:44.643Z,14.56
2022-11-24T08:11:48.984Z,14.86
2022-11-24T08:16:52.161Z,14.99
2022-11-24T08:21:53.937Z,15.04
2022-11-24T08:26:55.729Z,14.62
2022-11-24T08:31:58.925Z,14.86
2022-11-24T08:37:00.824Z,14.94
2022-11-24T08:42:02.849Z,15.36
2022-11-24T08:47:05.982Z,14.57
2022-11-24T08:52:07.732Z,14.78
2022-11-24T08:57:09.587Z,14.80
2022-11-24T09:02:12.889Z,14.72
2022-11-24T09:07:14.729Z,14.60
2022-11-24T09:12:16.695Z,14.43
2022-11-24T09:17:19.781Z,14.89
2022-11-24T09:22:21.593Z,14.42
2022-11-24T09:27:23.309Z,14.80
2022-11-24T09:32:26.374Z,14.90
2022-11-24T09:37:32.494Z,15.06
2022-11-24T09:42:37.564Z,14.79
2022-11-24T09:47:46.778Z,15.24
2022-11-24T09:52:50.157Z,14.82
2022-11-24T09:57:54.784Z,14.65
2022-11-24T10:02:57.864Z,14.74
2022-11-24T10:08:06.292Z,15.01
2022-11-24T10:13:15.645Z,15.19
2022-11-24T10:18:33.809Z,14.95
2022-11-24T10:23:43.628Z,15.25
2022-11-24T10:28:48.940Z,15.45
2022-11-24T10:33:52.281Z,15.65
2022-11-24T10:38:57.514Z,15.50
2022-11-24T10:43:59.339Z,15.67
2022-11-24T10:49:04.400Z,15.84
2022-11-24T10:54:09.548Z,16.38
2022-11-24T10:59:21.346Z,17.10
2022-11-24T11:04:25.964Z,17.35
2022-11-24T11:09:27.754Z,17.84
2022-11-24T11:14:30.979Z,18.19
2022-11-24T11:19:54.342Z,18.23
2022-11-24T11:25:16.496Z,17.67
2022-11-24T11:35:46.674Z,17.17
2022-11-24T11:40:49.154Z,17.62
2022-11-24T11:45:57.597Z,17.49
2022-11-24T11:56:25.013Z,17.73
2022-11-24T12:01:35.298Z,17.74
2022-11-24T12:06:54.417Z,18.32
2022-11-24T12:12:04.686Z,18.25
2022-11-24T12:17:07.955Z,18.01
2022-11-24T12:22:14.893Z,17.72
2022-11-24T12:27:23.370Z,17.56
2022-11-24T12:32:34.423Z,17.88
2022-11-24T12:37:48.568Z,18.27
2022-11-24T12:42:52.674Z,18.35
2022-11-24T12:48:11.682Z,18.57
2022-11-24T12:53:16.154Z,18.27
2022-11-24T12:58:20.440Z,18.08
2022-11-24T13:03:30.207Z,17.92
2022-11-24T13:08:33.501Z,18.00
2022-11-24T13:14:01.823Z,17.88
2022-11-24T13:19:09.090Z,17.70
2022-11-24T13:24:21.705Z,17.41
2022-11-24T13:29:31.006Z,16.46
2022-11-24T13:34:55.128Z,16.89
2022-11-24T13:39:59.188Z,17.82
2022-11-24T13:45:01.692Z,17.83
2022-11-24T13:50:04.907Z,17.29
2022-11-24T13:55:38.670Z,17.06
2022-11-24T14:01:07.331Z,16.55
2022-11-24T14:06:17.254Z,16.60
2022-11-24T14:11:20.928Z,16.61
2022-11-24T14:16:23.161Z,16.37
2022-11-24T14:21:27.166Z,16.19
2022-11-24T14:26:32.964Z,15.74
2022-11-24T14:31:34.803Z,15.70
2022-11-24T14:36:36.611Z,15.62
2022-11-24T14:41:39.997Z,15.70
2022-11-24T14:46:41.936Z,15.67
2022-11-24T14:51:44.564Z,15.53
2022-11-24T14:56:58.280Z,15.55
2022-11-24T15:02:00.381Z,15.79
2022-11-24T15:07:05.009Z,16.20
2022-11-24T15:12:09.506Z,16.30
2022-11-24T15:17:16.841Z,16.21
2022-11-24T15:22:43.698Z,17.24
2022-11-24T15:27:46.857Z,16.34
2022-11-24T15:32:50.138Z,16.30
2022-11-24T15:37:52.087Z,16.32
2022-11-24T15:42:56.163Z,15.74
2022-11-24T15:47:57.956Z,15.72
2022-11-24T15:52:59.699Z,15.54
2022-11-24T15:58:02.854Z,15.33
2022-11-24T16:03:23.940Z,15.03
2022-11-24T16:08:26.468Z,14.64
2022-11-24T16:13:29.637Z,14.55
2022-11-24T16:18:35.529Z,14.61
2022-11-24T16:23:37.432Z,14.60
2022-11-24T16:28:40.748Z,14.63
2022-11-24T16:33:44.703Z,14.56
2022-11-24T16:38:46.703Z,14.43
2022-11-24T16:43:49.971Z,14.28
2022-11-24T16:48:53.150Z,14.00
2022-11-24T16:53:57.208Z,13.99
2022-11-24T16:59:00.351Z,13.72
2022-11-24T17:04:02.091Z,13.80
2022-11-24T17:09:04.021Z,13.96
2022-11-24T17:14:07.143Z,14.11
2022-11-24T17:19:09.416Z,13.94
2022-11-24T17:24:15.452Z,14.11
2022-11-24T17:29:19.013Z,14.13
2022-11-24T17:34:21.005Z,13.81
2022-11-24T17:39:25.179Z,13.75
2022-11-24T17:44:28.353Z,13.56
2022-11-24T17:49:30.142Z,13.83
2022-11-24T17:54:45.818Z,13.69
2022-11-24T17:59:51.048Z,13.76
2022-11-24T18:04:52.865Z,13.86
2022-11-24T18:09:54.675Z,13.92
2022-11-24T18:14:57.892Z,13.89
2022-11-24T18:19:59.856Z,14.07
2022-11-24T18:25:01.958Z,14.01
2022-11-24T18:30:08.489Z,14.05
2022-11-24T18:35:10.295Z,13.88
2022-11-24T18:40:12.317Z,13.98
2022-11-24T18:45:15.552Z,14.02
2022-11-24T18:50:17.580Z,14.16
2022-11-24T18:55:20.588Z,13.91
2022-11-24T19:00:24.095Z,13.85
2022-11-24T19:05:25.943Z,13.94
2022-11-24T19:10:27.822Z,14.00
2022-11-24T19:15:33.966Z,14.21
2022-11-24T19:20:35.985Z,14.04
2022-11-24T19:25:37.907Z,13.87
2022-11-24T19:30:41.781Z,14.01
2022-11-24T19:35:43.705Z,13.98
2022-11-24T19:40:45.523Z,13.99
2022-11-24T19:45:48.833Z,14.16
2022-11-24T19:50:58.370Z,14.04
2022-11-24T19:56:03.533Z,14.00
2022-11-24T20:01:07.508Z,13.83
2022-11-24T20:06:10.159Z,13.68
2022-11-24T20:11:12.849Z,13.73
2022-11-24T20:16:16.733Z,13.72
2022-11-24T20:21:19.371Z,13.74
2022-11-24T20:26:23.064Z,13.67
2022-11-24T20:31:27.247Z,13.76
2022-11-24T20:36:29.789Z,13.69
2022-11-24T20:41:32.530Z,13.33
2022-11-24T20:46:36.493Z,13.46
2022-11-24T20:51:39.734Z,13.55
2022-11-24T20:56:42.505Z,13.28
2022-11-24T21:01:46.150Z,12.93
2022-11-24T21:06:48.329Z,12.75
2022-11-24T21:11:50.392Z,12.78
2022-11-24T21:16:53.776Z,12.68
2022-11-24T21:21:55.657Z,12.26
2022-11-24T21:26:57.487Z,12.21
2022-11-24T21:32:00.698Z,12.08
2022-11-24T21:37:02.531Z,12.60
2022-11-24T21:42:04.890Z,12.41
2022-11-24T21:47:08.207Z,12.14
2022-11-24T21:52:10.033Z,12.38
2022-11-24T21:57:11.878Z,12.18
2022-11-24T22:02:15.009Z,12.07
2022-11-24T22:07:16.864Z,11.97
2022-11-24T22:12:18.708Z,11.86
2022-11-24T22:17:21.841Z,12.48
2022-11-24T22:22:23.784Z,12.14
2022-11-24T22:27:25.829Z,12.17
2022-11-24T22:32:29.007Z,11.92
2022-11-24T22:37:30.903Z,11.90
2022-11-24T22:42:32.762Z,11.62
2022-11-24T22:47:35.970Z,11.69
2022-11-24T22:52:38.681Z,11.47
2022-11-24T22:57:42.855Z,11.37
2022-11-24T23:02:48.110Z,11.26
2022-11-24T23:07:49.963Z,11.09
2022-11-24T23:12:51.774Z,11.91
2022-11-24T23:17:55.505Z,11.19
2022-11-24T23:22:57.357Z,10.99
2022-11-24T23:27:59.212Z,10.94
2022-11-24T23:33:02.373Z,10.90
2022-11-24T23:38:08.133Z,10.95
2022-11-24T23:43:10.096Z,10.78
2022-11-24T23:48:13.227Z,10.54
2022-11-24T23:53:15.096Z,11.10
2022-11-24T23:58:17.099Z,11.04
